sensor_id;sensor_type;location;lat;lon;timestamp;pressure;altitude;pressure_sealevel;temperature;humidity
28606;BME280;46498;49.968;7.754;2023-02-20T00:03:14;98108.00;;;5.47;100.00
28606;BME280;46498;49.968;7.754;2023-02-20T00:08:16;98108.00;;;5.38;100.00
28606;BME280;46498;49.968;7.754;2023-02-20T00:13:16;98090.00;;;5.37;100.00
28606;BME280;46498;49.968;7.754;2023-02-20T00:18:17;98088.00;;;5.44;100.00
28606;BME280;46498;49.968;7.754;2023-02-20T00:23:18;98086.00;;;5.41;100.00
28606;BME280;46498;49.968;7.754;2023-02-20T00:28:19;98073.00;;;5.28;100.00
28606;BME280;46498;49.968;7.754;2023-02-20T00:33:20;98082.00;;;5.39;100.00
28606;BME280;46498;49.968;7.754;2023-02-20T00:38:22;98083.00;;;5.02;100.00
28606;BME280;46498;49.968;7.754;2023-02-20T00:43:23;98071.00;;;4.98;100.00
28606;BME280;46498;49.968;7.754;2023-02-20T00:48:24;98073.00;;;4.82;100.00
28606;BME280;46498;49.968;7.754;2023-02-20T00:54:18;98075.00;;;4.79;100.00
28606;BME280;46498;49.968;7.754;2023-02-20T00:59:19;98062.00;;;4.65;100.00
28606;BME280;46498;49.968;7.754;2023-02-20T01:04:21;98058.00;;;4.72;100.00
28606;BME280;46498;49.968;7.754;2023-02-20T01:09:21;98051.00;;;4.71;100.00
28606;BME280;46498;49.968;7.754;2023-02-20T01:14:22;98054.00;;;4.73;100.00
28606;BME280;46498;49.968;7.754;2023-02-20T01:19:23;98049.00;;;4.59;100.00
28606;BME280;46498;49.968;7.754;2023-02-20T01:24:26;98056.00;;;4.71;100.00
28606;BME280;46498;49.968;7.754;2023-02-20T01:29:27;98057.00;;;4.75;100.00
28606;BME280;46498;49.968;7.754;2023-02-20T01:34:28;98053.00;;;4.76;100.00
28606;BME280;46498;49.968;7.754;2023-02-20T01:39:29;98039.00;;;4.81;100.00
28606;BME280;46498;49.968;7.754;2023-02-20T01:44:33;98047.00;;;4.70;100.00
28606;BME280;46498;49.968;7.754;2023-02-20T01:49:50;98040.00;;;4.75;100.00
28606;BME280;46498;49.968;7.754;2023-02-20T01:55:00;98030.00;;;4.75;100.00
28606;BME280;46498;49.968;7.754;2023-02-20T02:00:11;98032.00;;;4.78;100.00
28606;BME280;46498;49.968;7.754;2023-02-20T02:05:16;98033.00;;;4.70;100.00
28606;BME280;46498;49.968;7.754;2023-02-20T02:11:08;98016.00;;;4.68;100.00
28606;BME280;46498;49.968;7.754;2023-02-20T02:18:27;98016.00;;;4.80;100.00
28606;BME280;46498;49.968;7.754;2023-02-20T02:41:05;98005.00;;;4.63;100.00
28606;BME280;46498;49.968;7.754;2023-02-20T02:46:21;98001.00;;;4.56;100.00
28606;BME280;46498;49.968;7.754;2023-02-20T02:51:28;97998.00;;;4.60;100.00
28606;BME280;46498;49.968;7.754;2023-02-20T02:56:37;97998.00;;;4.64;100.00
28606;BME280;46498;49.968;7.754;2023-02-20T03:01:43;97988.00;;;4.77;100.00
28606;BME280;46498;49.968;7.754;2023-02-20T03:06:45;97985.00;;;4.81;100.00
28606;BME280;46498;49.968;7.754;2023-02-20T03:11:47;97988.00;;;4.79;100.00
28606;BME280;46498;49.968;7.754;2023-02-20T03:17:25;97992.00;;;4.82;100.00
28606;BME280;46498;49.968;7.754;2023-02-20T03:22:34;97981.00;;;4.85;100.00
28606;BME280;46498;49.968;7.754;2023-02-20T03:27:58;97987.00;;;4.89;100.00
28606;BME280;46498;49.968;7.754;2023-02-20T03:33:07;97984.00;;;4.88;100.00
28606;BME280;46498;49.968;7.754;2023-02-20T03:38:29;97973.00;;;4.90;100.00
28606;BME280;46498;49.968;7.754;2023-02-20T03:43:53;97966.00;;;4.91;100.00
28606;BME280;46498;49.968;7.754;2023-02-20T03:49:09;97972.00;;;4.86;100.00
28606;BME280;46498;49.968;7.754;2023-02-20T03:54:31;97964.00;;;4.93;100.00
28606;BME280;46498;49.968;7.754;2023-02-20T03:59:55;97975.00;;;4.90;100.00
28606;BME280;46498;49.968;7.754;2023-02-20T04:05:03;97975.00;;;4.83;100.00
28606;BME280;46498;49.968;7.754;2023-02-20T04:10:13;97978.00;;;4.73;100.00
28606;BME280;46498;49.968;7.754;2023-02-20T04:15:16;97971.00;;;4.79;100.00
28606;BME280;46498;49.968;7.754;2023-02-20T04:20:19;97961.00;;;4.77;100.00
28606;BME280;46498;49.968;7.754;2023-02-20T04:25:41;97960.00;;;4.80;100.00
28606;BME280;46498;49.968;7.754;2023-02-20T04:30:45;97960.00;;;4.74;100.00
28606;BME280;46498;49.968;7.754;2023-02-20T04:35:46;97962.00;;;4.70;100.00
28606;BME280;46498;49.968;7.754;2023-02-20T04:40:48;97953.00;;;4.78;100.00
28606;BME280;46498;49.968;7.754;2023-02-20T04:45:50;97965.00;;;4.83;100.00
28606;BME280;46498;49.968;7.754;2023-02-20T04:50:51;97967.00;;;4.81;100.00
28606;BME280;46498;49.968;7.754;2023-02-20T04:55:53;97975.00;;;4.83;100.00
28606;BME280;46498;49.968;7.754;2023-02-20T05:00:56;97967.00;;;4.86;100.00
28606;BME280;46498;49.968;7.754;2023-02-20T05:05:57;97964.00;;;4.89;100.00
28606;BME280;46498;49.968;7.754;2023-02-20T05:10:58;97958.00;;;4.79;100.00
28606;BME280;46498;49.968;7.754;2023-02-20T05:15:59;97970.00;;;4.75;100.00
28606;BME280;46498;49.968;7.754;2023-02-20T05:21:00;97977.00;;;4.72;100.00
28606;BME280;46498;49.968;7.754;2023-02-20T05:26:20;97983.00;;;4.66;100.00
28606;BME280;46498;49.968;7.754;2023-02-20T05:31:22;97985.00;;;4.55;100.00
28606;BME280;46498;49.968;7.754;2023-02-20T05:36:23;97981.00;;;4.44;100.00
28606;BME280;46498;49.968;7.754;2023-02-20T05:41:23;97976.00;;;4.37;100.00
28606;BME280;46498;49.968;7.754;2023-02-20T05:46:25;97970.00;;;4.44;100.00
28606;BME280;46498;49.968;7.754;2023-02-20T05:51:28;97974.00;;;4.67;100.00
28606;BME280;46498;49.968;7.754;2023-02-20T05:56:29;97969.00;;;4.64;100.00
28606;BME280;46498;49.968;7.754;2023-02-20T06:01:32;97972.00;;;4.66;100.00
28606;BME280;46498;49.968;7.754;2023-02-20T06:06:36;97967.00;;;4.64;100.00
28606;BME280;46498;49.968;7.754;2023-02-20T06:11:38;97964.00;;;4.78;100.00
28606;BME280;46498;49.968;7.754;2023-02-20T06:16:39;97961.00;;;4.91;100.00
28606;BME280;46498;49.968;7.754;2023-02-20T06:21:44;97947.00;;;5.00;100.00
28606;BME280;46498;49.968;7.754;2023-02-20T06:26:45;97951.00;;;4.90;100.00
28606;BME280;46498;49.968;7.754;2023-02-20T06:31:46;97951.00;;;4.90;100.00
28606;BME280;46498;49.968;7.754;2023-02-20T06:36:47;97957.00;;;4.85;100.00
28606;BME280;46498;49.968;7.754;2023-02-20T06:41:48;97956.00;;;5.00;100.00
28606;BME280;46498;49.968;7.754;2023-02-20T06:46:49;97957.00;;;5.04;100.00
28606;BME280;46498;49.968;7.754;2023-02-20T06:51:53;97950.00;;;5.07;100.00
28606;BME280;46498;49.968;7.754;2023-02-20T06:56:54;97948.00;;;5.12;100.00
28606;BME280;46498;49.968;7.754;2023-02-20T07:01:56;97965.00;;;5.23;100.00
28606;BME280;46498;49.968;7.754;2023-02-20T07:06:57;97955.00;;;5.32;100.00
28606;BME280;46498;49.968;7.754;2023-02-20T07:11:59;97959.00;;;5.50;100.00
28606;BME280;46498;49.968;7.754;2023-02-20T07:17:03;97955.00;;;5.66;100.00
28606;BME280;46498;49.968;7.754;2023-02-20T07:22:04;97963.00;;;5.81;100.00
28606;BME280;46498;49.968;7.754;2023-02-20T07:27:04;97956.00;;;6.10;100.00
28606;BME280;46498;49.968;7.754;2023-02-20T07:32:06;97956.00;;;6.15;100.00
28606;BME280;46498;49.968;7.754;2023-02-20T07:37:08;97946.00;;;6.27;100.00
28606;BME280;46498;49.968;7.754;2023-02-20T07:42:09;97940.00;;;6.41;100.00
28606;BME280;46498;49.968;7.754;2023-02-20T07:47:22;97943.00;;;6.56;100.00
28606;BME280;46498;49.968;7.754;2023-02-20T07:52:23;97940.00;;;6.67;100.00
28606;BME280;46498;49.968;7.754;2023-02-20T07:57:25;97938.00;;;6.64;100.00
28606;BME280;46498;49.968;7.754;2023-02-20T08:02:26;97940.00;;;6.58;100.00
28606;BME280;46498;49.968;7.754;2023-02-20T08:07:26;97922.00;;;6.36;100.00
28606;BME280;46498;49.968;7.754;2023-02-20T08:12:27;97923.00;;;6.32;100.00
28606;BME280;46498;49.968;7.754;2023-02-20T08:17:28;97923.00;;;6.23;100.00
28606;BME280;46498;49.968;7.754;2023-02-20T08:22:49;97917.00;;;6.28;100.00
28606;BME280;46498;49.968;7.754;2023-02-20T08:27:50;97918.00;;;6.23;100.00
28606;BME280;46498;49.968;7.754;2023-02-20T08:32:51;97915.00;;;6.25;100.00
28606;BME280;46498;49.968;7.754;2023-02-20T08:37:53;97910.00;;;6.46;100.00
28606;BME280;46498;49.968;7.754;2023-02-20T08:42:54;97911.00;;;6.53;100.00
28606;BME280;46498;49.968;7.754;2023-02-20T08:47:56;97912.00;;;6.85;100.00
28606;BME280;46498;49.968;7.754;2023-02-20T08:53:01;97896.00;;;6.99;100.00
28606;BME280;46498;49.968;7.754;2023-02-20T08:58:02;97895.00;;;7.19;100.00
28606;BME280;46498;49.968;7.754;2023-02-20T09:03:04;97893.00;;;7.59;100.00
28606;BME280;46498;49.968;7.754;2023-02-20T09:08:08;97896.00;;;7.82;100.00
28606;BME280;46498;49.968;7.754;2023-02-20T09:13:10;97897.00;;;7.98;98.51
28606;BME280;46498;49.968;7.754;2023-02-20T09:18:12;97895.00;;;8.16;95.70
28606;BME280;46498;49.968;7.754;2023-02-20T09:23:14;97901.00;;;8.37;93.04
28606;BME280;46498;49.968;7.754;2023-02-20T09:28:14;97891.00;;;8.58;87.84
28606;BME280;46498;49.968;7.754;2023-02-20T09:33:15;97888.00;;;8.84;86.02
28606;BME280;46498;49.968;7.754;2023-02-20T09:38:17;97892.00;;;9.19;81.28
28606;BME280;46498;49.968;7.754;2023-02-20T09:43:50;97899.00;;;9.46;78.59
28606;BME280;46498;49.968;7.754;2023-02-20T09:49:14;97902.00;;;9.69;74.00
28606;BME280;46498;49.968;7.754;2023-02-20T09:54:23;97894.00;;;9.69;67.28
28606;BME280;46498;49.968;7.754;2023-02-20T10:00:57;97892.00;;;10.17;66.14
28606;BME280;46498;49.968;7.754;2023-02-20T10:06:02;97895.00;;;10.70;66.29
28606;BME280;46498;49.968;7.754;2023-02-20T10:11:08;97905.00;;;11.06;60.98
28606;BME280;46498;49.968;7.754;2023-02-20T10:16:27;97908.00;;;11.47;60.22
28606;BME280;46498;49.968;7.754;2023-02-20T10:21:46;97908.00;;;11.50;58.20
28606;BME280;46498;49.968;7.754;2023-02-20T10:26:53;97914.00;;;10.70;59.54
28606;BME280;46498;49.968;7.754;2023-02-20T10:32:05;97908.00;;;10.56;60.87
28606;BME280;46498;49.968;7.754;2023-02-20T10:37:15;97915.00;;;10.82;62.90
28606;BME280;46498;49.968;7.754;2023-02-20T10:42:37;97912.00;;;11.11;58.17
28606;BME280;46498;49.968;7.754;2023-02-20T10:47:51;97913.00;;;11.02;58.56
28606;BME280;46498;49.968;7.754;2023-02-20T10:53:02;97910.00;;;11.23;56.57
28606;BME280;46498;49.968;7.754;2023-02-20T10:58:58;97914.00;;;11.28;56.21
28606;BME280;46498;49.968;7.754;2023-02-20T11:04:10;97911.00;;;11.66;54.82
28606;BME280;46498;49.968;7.754;2023-02-20T11:09:12;97915.00;;;11.27;55.25
28606;BME280;46498;49.968;7.754;2023-02-20T11:14:15;97909.00;;;11.70;54.19
28606;BME280;46498;49.968;7.754;2023-02-20T11:19:43;97911.00;;;11.83;54.06
28606;BME280;46498;49.968;7.754;2023-02-20T11:24:45;97905.00;;;12.11;55.48
28606;BME280;46498;49.968;7.754;2023-02-20T11:30:00;97896.00;;;11.96;52.89
28606;BME280;46498;49.968;7.754;2023-02-20T11:35:39;97888.00;;;12.00;53.05
28606;BME280;46498;49.968;7.754;2023-02-20T11:40:41;97880.00;;;12.32;52.95
28606;BME280;46498;49.968;7.754;2023-02-20T11:45:42;97866.00;;;12.16;53.57
28606;BME280;46498;49.968;7.754;2023-02-20T11:50:51;97854.00;;;11.68;53.71
28606;BME280;46498;49.968;7.754;2023-02-20T11:56:16;97848.00;;;11.52;54.73
28606;BME280;46498;49.968;7.754;2023-02-20T12:01:29;97843.00;;;12.01;53.75
28606;BME280;46498;49.968;7.754;2023-02-20T12:06:41;97847.00;;;12.12;54.24
28606;BME280;46498;49.968;7.754;2023-02-20T12:11:42;97838.00;;;12.15;54.19
28606;BME280;46498;49.968;7.754;2023-02-20T12:17:18;97829.00;;;11.80;54.54
28606;BME280;46498;49.968;7.754;2023-02-20T12:22:33;97817.00;;;11.55;55.31
28606;BME280;46498;49.968;7.754;2023-02-20T12:54:36;97782.00;;;12.09;52.45
28606;BME280;46498;49.968;7.754;2023-02-20T13:00:17;97780.00;;;12.94;49.01
28606;BME280;46498;49.968;7.754;2023-02-20T13:05:23;97764.00;;;13.20;48.66
28606;BME280;46498;49.968;7.754;2023-02-20T13:10:31;97758.00;;;13.27;49.46
28606;BME280;46498;49.968;7.754;2023-02-20T13:15:53;97765.00;;;12.94;50.22
28606;BME280;46498;49.968;7.754;2023-02-20T13:21:12;97754.00;;;13.06;49.10
28606;BME280;46498;49.968;7.754;2023-02-20T13:26:50;97738.00;;;12.97;48.82
28606;BME280;46498;49.968;7.754;2023-02-20T13:32:21;97727.00;;;13.21;48.20
28606;BME280;46498;49.968;7.754;2023-02-20T13:38:25;97729.00;;;13.43;48.24
28606;BME280;46498;49.968;7.754;2023-02-20T13:43:45;97721.00;;;13.41;47.25
28606;BME280;46498;49.968;7.754;2023-02-20T13:48:50;97712.00;;;13.43;47.79
28606;BME280;46498;49.968;7.754;2023-02-20T13:54:37;97703.00;;;13.65;46.81
28606;BME280;46498;49.968;7.754;2023-02-20T13:59:38;97689.00;;;13.73;47.05
28606;BME280;46498;49.968;7.754;2023-02-20T14:04:54;97679.00;;;13.71;45.97
28606;BME280;46498;49.968;7.754;2023-02-20T14:10:05;97672.00;;;14.01;46.64
28606;BME280;46498;49.968;7.754;2023-02-20T14:15:08;97668.00;;;13.88;45.51
28606;BME280;46498;49.968;7.754;2023-02-20T14:20:31;97667.00;;;13.83;46.81
28606;BME280;46498;49.968;7.754;2023-02-20T14:25:33;97651.00;;;13.67;47.62
28606;BME280;46498;49.968;7.754;2023-02-20T14:30:34;97631.00;;;13.75;48.52
28606;BME280;46498;49.968;7.754;2023-02-20T14:36:06;97625.00;;;13.85;48.83
28606;BME280;46498;49.968;7.754;2023-02-20T14:41:18;97626.00;;;13.73;49.43
28606;BME280;46498;49.968;7.754;2023-02-20T14:46:22;97617.00;;;13.99;47.27
28606;BME280;46498;49.968;7.754;2023-02-20T14:51:25;97608.00;;;13.69;47.14
28606;BME280;46498;49.968;7.754;2023-02-20T14:56:26;97596.00;;;13.68;47.71
28606;BME280;46498;49.968;7.754;2023-02-20T15:01:34;97582.00;;;13.54;47.41
28606;BME280;46498;49.968;7.754;2023-02-20T15:06:40;97582.00;;;13.67;47.35
28606;BME280;46498;49.968;7.754;2023-02-20T15:11:51;97587.00;;;13.65;47.04
28606;BME280;46498;49.968;7.754;2023-02-20T15:18:45;97582.00;;;13.73;46.56
28606;BME280;46498;49.968;7.754;2023-02-20T15:23:50;97591.00;;;13.50;47.09
28606;BME280;46498;49.968;7.754;2023-02-20T15:29:20;97580.00;;;13.46;47.13
28606;BME280;46498;49.968;7.754;2023-02-20T15:34:24;97578.00;;;13.11;47.64
28606;BME280;46498;49.968;7.754;2023-02-20T15:39:26;97589.00;;;13.02;47.96
28606;BME280;46498;49.968;7.754;2023-02-20T15:44:27;97579.00;;;12.77;47.87
28606;BME280;46498;49.968;7.754;2023-02-20T15:49:28;97569.00;;;12.54;48.70
28606;BME280;46498;49.968;7.754;2023-02-20T15:54:29;97573.00;;;12.58;49.02
28606;BME280;46498;49.968;7.754;2023-02-20T15:59:30;97550.00;;;12.46;49.38
28606;BME280;46498;49.968;7.754;2023-02-20T16:04:31;97544.00;;;12.21;49.71
28606;BME280;46498;49.968;7.754;2023-02-20T16:09:31;97556.00;;;11.92;50.87
28606;BME280;46498;49.968;7.754;2023-02-20T16:14:32;97557.00;;;11.68;51.78
28606;BME280;46498;49.968;7.754;2023-02-20T16:19:33;97563.00;;;11.41;52.43
28606;BME280;46498;49.968;7.754;2023-02-20T16:24:43;97553.00;;;11.08;53.74
28606;BME280;46498;49.968;7.754;2023-02-20T16:29:45;97559.00;;;10.93;55.04
28606;BME280;46498;49.968;7.754;2023-02-20T16:34:46;97568.00;;;10.86;56.65
28606;BME280;46498;49.968;7.754;2023-02-20T16:39:48;97560.00;;;10.69;57.70
28606;BME280;46498;49.968;7.754;2023-02-20T16:44:49;97557.00;;;10.51;59.36
28606;BME280;46498;49.968;7.754;2023-02-20T16:49:52;97549.00;;;10.41;60.90
28606;BME280;46498;49.968;7.754;2023-02-20T16:54:54;97545.00;;;10.26;62.75
28606;BME280;46498;49.968;7.754;2023-02-20T16:59:58;97553.00;;;10.14;64.25
28606;BME280;46498;49.968;7.754;2023-02-20T17:04:59;97548.00;;;10.03;65.43
28606;BME280;46498;49.968;7.754;2023-02-20T17:10:00;97531.00;;;9.98;66.63
28606;BME280;46498;49.968;7.754;2023-02-20T17:15:03;97533.00;;;9.87;67.85
28606;BME280;46498;49.968;7.754;2023-02-20T17:20:06;97532.00;;;9.90;68.09
28606;BME280;46498;49.968;7.754;2023-02-20T17:25:18;97537.00;;;9.79;68.96
28606;BME280;46498;49.968;7.754;2023-02-20T17:30:21;97555.00;;;9.73;69.78
28606;BME280;46498;49.968;7.754;2023-02-20T17:35:22;97558.00;;;9.70;70.53
28606;BME280;46498;49.968;7.754;2023-02-20T17:40:23;97550.00;;;9.56;71.84
28606;BME280;46498;49.968;7.754;2023-02-20T17:45:24;97559.00;;;9.48;72.19
28606;BME280;46498;49.968;7.754;2023-02-20T17:50:25;97566.00;;;9.58;71.73
28606;BME280;46498;49.968;7.754;2023-02-20T17:55:26;97562.00;;;9.38;73.22
28606;BME280;46498;49.968;7.754;2023-02-20T18:00:27;97567.00;;;9.49;72.70
28606;BME280;46498;49.968;7.754;2023-02-20T18:05:28;97564.00;;;9.48;72.63
28606;BME280;46498;49.968;7.754;2023-02-20T18:10:28;97564.00;;;9.39;73.40
28606;BME280;46498;49.968;7.754;2023-02-20T18:15:31;97562.00;;;9.24;74.37
28606;BME280;46498;49.968;7.754;2023-02-20T18:20:32;97572.00;;;9.16;74.78
28606;BME280;46498;49.968;7.754;2023-02-20T18:25:33;97574.00;;;9.14;74.81
28606;BME280;46498;49.968;7.754;2023-02-20T18:30:41;97578.00;;;9.10;74.67
28606;BME280;46498;49.968;7.754;2023-02-20T18:35:42;97575.00;;;9.09;74.56
28606;BME280;46498;49.968;7.754;2023-02-20T18:40:43;97564.00;;;8.94;75.20
28606;BME280;46498;49.968;7.754;2023-02-20T18:45:46;97565.00;;;8.93;75.17
28606;BME280;46498;49.968;7.754;2023-02-20T18:50:47;97564.00;;;8.85;75.54
28606;BME280;46498;49.968;7.754;2023-02-20T18:55:49;97555.00;;;8.74;76.18
28606;BME280;46498;49.968;7.754;2023-02-20T19:00:50;97543.00;;;8.70;76.62
28606;BME280;46498;49.968;7.754;2023-02-20T19:05:51;97547.00;;;8.73;76.67
28606;BME280;46498;49.968;7.754;2023-02-20T19:10:52;97563.00;;;8.76;76.37
28606;BME280;46498;49.968;7.754;2023-02-20T19:15:52;97564.00;;;8.78;76.24
28606;BME280;46498;49.968;7.754;2023-02-20T19:20:53;97570.00;;;8.58;77.84
28606;BME280;46498;49.968;7.754;2023-02-20T19:25:54;97577.00;;;8.53;78.09
28606;BME280;46498;49.968;7.754;2023-02-20T19:30:59;97577.00;;;8.47;78.62
28606;BME280;46498;49.968;7.754;2023-02-20T19:36:01;97584.00;;;8.46;79.18
28606;BME280;46498;49.968;7.754;2023-02-20T19:41:02;97587.00;;;8.34;80.01
28606;BME280;46498;49.968;7.754;2023-02-20T19:46:02;97580.00;;;8.30;80.56
28606;BME280;46498;49.968;7.754;2023-02-20T19:51:07;97587.00;;;8.20;81.59
28606;BME280;46498;49.968;7.754;2023-02-20T19:56:08;97587.00;;;8.17;82.32
28606;BME280;46498;49.968;7.754;2023-02-20T20:01:14;97580.00;;;8.17;82.12
28606;BME280;46498;49.968;7.754;2023-02-20T20:06:16;97574.00;;;8.14;82.52
28606;BME280;46498;49.968;7.754;2023-02-20T20:11:18;97585.00;;;8.10;82.71
28606;BME280;46498;49.968;7.754;2023-02-20T20:16:18;97570.00;;;8.03;83.37
28606;BME280;46498;49.968;7.754;2023-02-20T20:21:20;97569.00;;;7.98;83.63
28606;BME280;46498;49.968;7.754;2023-02-20T20:26:25;97565.00;;;7.92;84.41
28606;BME280;46498;49.968;7.754;2023-02-20T20:31:31;97561.00;;;7.95;84.33
28606;BME280;46498;49.968;7.754;2023-02-20T20:36:33;97550.00;;;7.95;84.32
28606;BME280;46498;49.968;7.754;2023-02-20T20:41:34;97552.00;;;7.81;85.43
28606;BME280;46498;49.968;7.754;2023-02-20T20:46:45;97555.00;;;7.82;85.44
28606;BME280;46498;49.968;7.754;2023-02-20T20:51:45;97555.00;;;7.77;86.12
28606;BME280;46498;49.968;7.754;2023-02-20T20:56:48;97556.00;;;7.80;86.08
28606;BME280;46498;49.968;7.754;2023-02-20T21:01:49;97540.00;;;7.69;86.94
28606;BME280;46498;49.968;7.754;2023-02-20T21:06:50;97550.00;;;7.69;87.49
28606;BME280;46498;49.968;7.754;2023-02-20T21:11:52;97556.00;;;7.69;87.76
28606;BME280;46498;49.968;7.754;2023-02-20T21:16:52;97545.00;;;7.69;87.90
28606;BME280;46498;49.968;7.754;2023-02-20T21:21:53;97550.00;;;7.65;88.55
28606;BME280;46498;49.968;7.754;2023-02-20T21:26:54;97558.00;;;7.63;89.03
28606;BME280;46498;49.968;7.754;2023-02-20T21:31:55;97562.00;;;7.49;90.27
28606;BME280;46498;49.968;7.754;2023-02-20T21:36:56;97552.00;;;7.51;90.61
28606;BME280;46498;49.968;7.754;2023-02-20T21:41:57;97555.00;;;7.48;91.09
28606;BME280;46498;49.968;7.754;2023-02-20T21:47:16;97544.00;;;7.38;92.33
28606;BME280;46498;49.968;7.754;2023-02-20T21:52:20;97542.00;;;7.36;92.81
28606;BME280;46498;49.968;7.754;2023-02-20T21:57:21;97547.00;;;7.32;93.86
28606;BME280;46498;49.968;7.754;2023-02-20T22:02:26;97540.00;;;7.34;94.21
28606;BME280;46498;49.968;7.754;2023-02-20T22:07:27;97540.00;;;7.40;94.25
28606;BME280;46498;49.968;7.754;2023-02-20T22:12:46;97537.00;;;7.38;94.36
28606;BME280;46498;49.968;7.754;2023-02-20T22:18:05;97531.00;;;7.29;95.77
28606;BME280;46498;49.968;7.754;2023-02-20T22:23:24;97528.00;;;7.32;95.72
28606;BME280;46498;49.968;7.754;2023-02-20T22:28:44;97522.00;;;7.28;96.95
28606;BME280;46498;49.968;7.754;2023-02-20T22:34:03;97525.00;;;7.25;97.38
28606;BME280;46498;49.968;7.754;2023-02-20T22:39:22;97519.00;;;7.21;97.90
28606;BME280;46498;49.968;7.754;2023-02-20T22:44:42;97519.00;;;7.15;98.55
28606;BME280;46498;49.968;7.754;2023-02-20T22:50:01;97515.00;;;7.09;99.41
28606;BME280;46498;49.968;7.754;2023-02-20T22:55:20;97507.00;;;7.07;99.71
28606;BME280;46498;49.968;7.754;2023-02-20T23:00:43;97511.00;;;7.02;100.00
28606;BME280;46498;49.968;7.754;2023-02-20T23:06:02;97497.00;;;6.99;100.00
28606;BME280;46498;49.968;7.754;2023-02-20T23:11:24;97501.00;;;6.96;100.00
28606;BME280;46498;49.968;7.754;2023-02-20T23:16:44;97497.00;;;6.90;100.00
28606;BME280;46498;49.968;7.754;2023-02-20T23:22:06;97500.00;;;7.00;100.00
28606;BME280;46498;49.968;7.754;2023-02-20T23:27:26;97507.00;;;7.03;100.00
28606;BME280;46498;49.968;7.754;2023-02-20T23:32:45;97502.00;;;7.02;100.00
28606;BME280;46498;49.968;7.754;2023-02-20T23:38:04;97514.00;;;6.92;100.00
28606;BME280;46498;49.968;7.754;2023-02-20T23:43:27;97507.00;;;6.88;100.00
28606;BME280;46498;49.968;7.754;2023-02-20T23:48:46;97505.00;;;6.88;100.00
28606;BME280;46498;49.968;7.754;2023-02-20T23:54:05;97509.00;;;6.81;100.00
28606;BME280;46498;49.968;7.754;2023-02-20T23:59:25;97496.00;;;6.76;100.00
